Time;durP1;ratioP1;P1;durP2;ratioP2;P2;SDS_P1;SDS_P2;PMS_P1;PMS_P2;Temp;Humidity;BMP_temperature;BMP_pressure;BME280_temperature;BME280_humidity;BME280_pressure;Samples;Min_cycle;Max_cycle;Signal;HPM_P1;HPM_P2
2021/01/21 00:01:19;;;;;;;6.50;1.30;;;10.00;74.50;;;;;;6276425;22;20054;-81
2021/01/21 00:03:45;;;;;;;4.50;1.30;;;10.00;73.80;;;;;;6276707;22;20000;-82
2021/01/21 00:06:11;;;;;;;6.43;1.50;;;10.00;73.80;;;;;;6277094;22;20012;-81
2021/01/21 00:08:37;;;;;;;5.07;1.43;;;10.00;73.60;;;;;;6276577;22;19999;-81
2021/01/21 00:11:03;;;;;;;4.37;1.63;;;10.00;73.50;;;;;;6275831;22;20038;-81
2021/01/21 00:13:28;;;;;;;3.50;1.50;;;10.00;73.80;;;;;;6276904;22;20076;-81
2021/01/21 00:15:54;;;;;;;4.03;1.27;;;10.00;73.50;;;;;;6276419;22;20078;-81
2021/01/21 00:18:20;;;;;;;4.63;1.40;;;10.00;73.40;;;;;;6276634;22;20002;-81
2021/01/21 00:20:45;;;;;;;7.40;1.93;;;10.10;73.20;;;;;;6276074;22;20039;-81
2021/01/21 00:23:11;;;;;;;4.40;1.40;;;10.00;73.30;;;;;;6276598;22;19999;-81
2021/01/21 00:25:36;;;;;;;3.90;1.30;;;10.00;73.20;;;;;;6276887;22;20000;-81
2021/01/21 00:28:02;;;;;;;4.87;1.40;;;10.10;73.30;;;;;;6276804;22;19996;-81
2021/01/21 00:30:28;;;;;;;3.33;1.20;;;10.00;73.20;;;;;;6275737;22;20429;-82
2021/01/21 00:32:53;;;;;;;7.53;1.40;;;10.00;73.10;;;;;;6276602;22;20527;-81
2021/01/21 00:35:19;;;;;;;4.97;1.47;;;10.00;73.20;;;;;;6276286;22;20074;-81
2021/01/21 00:37:45;;;;;;;3.77;1.40;;;10.00;73.40;;;;;;6276885;22;20004;-81
2021/01/21 00:40:11;;;;;;;3.47;0.97;;;10.00;73.30;;;;;;6275576;22;20008;-81
2021/01/21 00:42:37;;;;;;;4.93;1.63;;;10.00;73.30;;;;;;6276694;22;20331;-81
2021/01/21 00:45:04;;;;;;;4.17;1.50;;;10.00;73.40;;;;;;6277212;22;19996;-81
2021/01/21 00:47:29;;;;;;;3.40;1.00;;;10.00;73.20;;;;;;6276636;22;20000;-81
2021/01/21 00:49:55;;;;;;;5.73;1.33;;;10.00;73.00;;;;;;6275804;22;20446;-81
2021/01/21 00:52:20;;;;;;;9.07;1.73;;;10.00;73.00;;;;;;6276942;22;20008;-81
2021/01/21 00:54:46;;;;;;;3.13;1.10;;;10.00;72.60;;;;;;6277674;22;20387;-82
2021/01/21 00:57:11;;;;;;;4.10;1.30;;;10.10;72.30;;;;;;6277173;22;20031;-81
2021/01/21 00:59:37;;;;;;;3.83;1.10;;;10.10;72.30;;;;;;6276949;22;20053;-81
2021/01/21 01:02:03;;;;;;;2.83;0.90;;;10.10;72.30;;;;;;6277333;22;20011;-81
2021/01/21 01:04:28;;;;;;;3.53;1.07;;;10.00;72.50;;;;;;6250108;22;20010;-81
2021/01/21 01:06:54;;;;;;;7.43;1.57;;;10.10;72.30;;;;;;6307706;22;20015;-85
2021/01/21 01:09:20;;;;;;;4.37;1.30;;;10.10;72.30;;;;;;6290159;22;20007;-85
2021/01/21 01:11:46;;;;;;;3.93;1.00;;;10.10;72.50;;;;;;6319135;22;20448;-86
2021/01/21 01:14:12;;;;;;;4.67;1.17;;;10.10;72.30;;;;;;6290198;22;20443;-86
2021/01/21 01:16:38;;;;;;;5.37;1.43;;;10.10;72.30;;;;;;6269114;22;20011;-85
2021/01/21 01:19:04;;;;;;;6.03;1.07;;;10.10;72.40;;;;;;6259554;22;20004;-85
2021/01/21 01:21:29;;;;;;;5.03;1.20;;;10.10;72.30;;;;;;6259732;22;20011;-86
2021/01/21 01:23:55;;;;;;;2.87;1.30;;;10.10;72.20;;;;;;6260309;22;20000;-86
2021/01/21 01:26:21;;;;;;;4.37;1.03;;;10.10;71.70;;;;;;6260311;22;20376;-85
2021/01/21 01:28:47;;;;;;;3.00;1.07;;;10.20;71.60;;;;;;6286506;22;19996;-85
2021/01/21 01:31:13;;;;;;;5.47;1.07;;;10.10;71.80;;;;;;6258603;22;20008;-86
2021/01/21 01:33:38;;;;;;;5.53;1.20;;;10.20;71.40;;;;;;6260444;22;20004;-86
2021/01/21 01:36:05;;;;;;;5.53;1.40;;;10.20;71.40;;;;;;6260385;22;20010;-86
2021/01/21 01:38:31;;;;;;;3.83;1.20;;;10.20;70.90;;;;;;6259086;22;20030;-86
2021/01/21 01:40:56;;;;;;;5.20;1.10;;;10.20;71.00;;;;;;6258741;22;20027;-86
2021/01/21 01:43:22;;;;;;;4.83;1.20;;;10.20;70.90;;;;;;6287474;22;19996;-85
2021/01/21 01:45:48;;;;;;;3.50;1.00;;;10.20;70.70;;;;;;6260438;22;20004;-87
2021/01/21 01:48:13;;;;;;;3.63;1.20;;;10.20;70.90;;;;;;6287770;22;19996;-85
2021/01/21 01:50:39;;;;;;;2.90;1.33;;;10.20;71.00;;;;;;6259217;22;20004;-85
2021/01/21 01:53:06;;;;;;;4.83;1.10;;;10.10;70.90;;;;;;6288232;22;20034;-85
2021/01/21 01:55:32;;;;;;;2.53;1.10;;;10.20;70.70;;;;;;6261872;22;20060;-86
2021/01/21 01:57:59;;;;;;;4.83;0.90;;;10.20;70.50;;;;;;6260725;22;20434;-87
2021/01/21 02:00:25;;;;;;;4.50;1.40;;;10.20;70.50;;;;;;6259889;22;20092;-85
2021/01/21 02:02:51;;;;;;;5.50;2.33;;;10.20;70.70;;;;;;6261015;22;20000;-87
2021/01/21 02:05:20;;;;;;;4.10;1.30;;;10.20;70.60;;;;;;6260630;22;20000;-85
2021/01/21 02:07:46;;;;;;;7.18;2.13;;;10.20;70.50;;;;;;6288160;22;19995;-86
2021/01/21 02:10:14;;;;;;;5.70;1.30;;;10.20;71.30;;;;;;6260641;22;20027;-86
2021/01/21 02:13:06;;;;;;;4.83;1.20;;;10.10;70.60;;;;;;6288377;22;20003;-86
2021/01/21 02:15:46;;;;;;;3.63;1.20;;;10.20;70.40;;;;;;6261337;22;20007;-85
2021/01/21 02:18:23;;;;;;;5.77;1.30;;;10.20;70.20;;;;;;6260667;22;20000;-85
2021/01/21 02:21:33;;;;;;;3.67;1.27;;;10.30;70.10;;;;;;6260704;22;20063;-86
2021/01/21 02:24:21;;;;;;;5.60;1.90;;;10.30;70.30;;;;;;6254182;22;20422;-85
2021/01/21 02:26:54;;;;;;;4.90;1.20;;;10.30;70.20;;;;;;6260405;22;19999;-87
2021/01/21 02:29:22;;;;;;;4.67;1.30;;;10.30;70.00;;;;;;6287161;22;20019;-85
2021/01/21 02:32:20;;;;;;;3.15;1.02;;;10.30;69.90;;;;;;6261070;22;20015;-86
2021/01/21 02:34:51;;;;;;;4.07;1.20;;;10.30;70.10;;;;;;6260567;22;20006;-87
2021/01/21 02:37:28;;;;;;;3.40;1.20;;;10.30;70.00;;;;;;6260185;22;20014;-86
2021/01/21 02:39:57;;;;;;;3.50;0.90;;;10.40;69.70;;;;;;6287387;22;20073;-86
2021/01/21 02:42:23;;;;;;;2.10;1.00;;;10.40;69.50;;;;;;6260432;22;20011;-87
2021/01/21 02:44:49;;;;;;;3.53;1.20;;;10.40;70.30;;;;;;6259301;22;20007;-86
2021/01/21 02:47:16;;;;;;;3.13;1.00;;;10.40;69.70;;;;;;6260092;22;19995;-85
2021/01/21 02:49:42;;;;;;;3.43;1.30;;;10.40;69.60;;;;;;6287588;22;20004;-86
2021/01/21 02:52:21;;;;;;;3.80;1.10;;;10.40;69.60;;;;;;6261112;22;20018;-85
2021/01/21 02:54:55;;;;;;;4.72;1.02;;;10.40;69.50;;;;;;6287902;22;20007;-86
2021/01/21 02:57:27;;;;;;;3.97;1.27;;;10.50;69.60;;;;;;6287542;22;20341;-86
2021/01/21 02:59:59;;;;;;;4.70;1.10;;;10.50;69.40;;;;;;6260121;22;20008;-85
2021/01/21 03:02:27;;;;;;;4.47;1.10;;;10.50;69.30;;;;;;6260255;22;20339;-86
2021/01/21 03:04:53;;;;;;;2.63;1.00;;;10.60;69.40;;;;;;6260077;22;20003;-86
2021/01/21 03:07:22;;;;;;;6.77;1.20;;;10.60;69.20;;;;;;6285907;22;20007;-85
2021/01/21 03:09:49;;;;;;;3.20;0.90;;;10.70;69.30;;;;;;6258611;22;20003;-87
2021/01/21 03:12:20;;;;;;;3.10;1.00;;;10.70;70.40;;;;;;6249133;22;20438;-86
2021/01/21 03:14:47;;;;;;;2.53;1.00;;;10.60;71.10;;;;;;6276066;22;20006;-86
2021/01/21 03:17:13;;;;;;;3.87;1.00;;;10.70;70.60;;;;;;6249137;22;20006;-86
2021/01/21 03:19:39;;;;;;;3.77;1.17;;;10.70;70.00;;;;;;6276222;22;20074;-87
2021/01/21 03:22:04;;;;;;;3.07;1.00;;;10.70;70.20;;;;;;6248775;22;20333;-86
2021/01/21 03:24:30;;;;;;;2.60;0.87;;;10.80;69.80;;;;;;6248917;22;20058;-87
2021/01/21 03:26:55;;;;;;;3.73;1.03;;;10.80;69.50;;;;;;6248738;22;20023;-86
2021/01/21 03:29:21;;;;;;;2.43;1.00;;;10.80;69.40;;;;;;6248292;22;20316;-86
2021/01/21 03:31:47;;;;;;;2.47;0.90;;;10.80;69.70;;;;;;6275884;22;20003;-86
2021/01/21 03:34:12;;;;;;;3.93;1.20;;;10.80;69.60;;;;;;6249057;22;20007;-86
2021/01/21 03:36:38;;;;;;;4.03;1.00;;;10.80;69.90;;;;;;6275805;22;20089;-87
2021/01/21 03:39:04;;;;;;;3.57;1.00;;;10.80;70.10;;;;;;6248486;22;20058;-86
2021/01/21 03:41:29;;;;;;;3.33;1.00;;;10.70;70.00;;;;;;6248512;22;20077;-86
2021/01/21 03:43:55;;;;;;;3.90;0.97;;;10.80;70.00;;;;;;6249189;22;20000;-86
2021/01/21 03:46:21;;;;;;;2.77;1.00;;;10.80;70.10;;;;;;6248907;22;20004;-86
2021/01/21 03:48:46;;;;;;;4.30;1.03;;;10.80;70.20;;;;;;6275950;22;20011;-86
2021/01/21 03:51:12;;;;;;;3.23;1.00;;;10.80;70.20;;;;;;6248142;22;20059;-86
2021/01/21 03:53:38;;;;;;;3.60;1.07;;;10.80;70.60;;;;;;6248882;22;20319;-87
2021/01/21 03:56:04;;;;;;;2.23;1.00;;;10.80;71.20;;;;;;6248705;22;20015;-87
2021/01/21 03:58:29;;;;;;;5.23;0.97;;;10.80;71.30;;;;;;6248802;22;20393;-86
2021/01/21 04:00:55;;;;;;;8.53;1.10;;;10.80;70.90;;;;;;6248251;22;20004;-87
2021/01/21 04:03:21;;;;;;;2.60;1.00;;;10.90;70.80;;;;;;6248769;22;20000;-86
2021/01/21 04:05:46;;;;;;;3.70;0.90;;;10.90;70.80;;;;;;6248508;22;20350;-86
2021/01/21 04:08:12;;;;;;;2.93;0.80;;;10.90;70.80;;;;;;6248572;22;20000;-87
2021/01/21 04:10:38;;;;;;;3.43;1.00;;;10.90;70.90;;;;;;6248034;22;20413;-87
2021/01/21 04:13:03;;;;;;;3.03;1.17;;;10.90;70.60;;;;;;6275709;22;20010;-86
2021/01/21 04:15:29;;;;;;;4.87;1.10;;;11.00;70.50;;;;;;6275269;22;20038;-86
2021/01/21 04:17:54;;;;;;;2.10;0.60;;;11.00;70.70;;;;;;6248549;22;20444;-86
2021/01/21 04:20:20;;;;;;;3.00;0.83;;;11.00;70.60;;;;;;6247827;22;20004;-86
2021/01/21 04:22:46;;;;;;;2.27;0.80;;;11.00;70.40;;;;;;6248537;22;20419;-86
2021/01/21 04:25:12;;;;;;;3.77;0.70;;;11.10;70.20;;;;;;6248465;22;20082;-86
2021/01/21 04:27:37;;;;;;;3.30;0.83;;;11.10;70.30;;;;;;6248451;22;20023;-86
2021/01/21 04:30:07;;;;;;;2.13;0.80;;;11.10;70.80;;;;;;6247969;22;20004;-87
2021/01/21 04:32:33;;;;;;;3.30;0.80;;;11.10;70.80;;;;;;6248749;22;20032;-87
2021/01/21 04:34:58;;;;;;;4.37;0.93;;;11.10;71.00;;;;;;6248764;22;20003;-86
2021/01/21 04:37:24;;;;;;;1.53;0.70;;;11.10;71.10;;;;;;6248494;22;20046;-86
2021/01/21 04:39:49;;;;;;;2.93;0.77;;;11.10;71.10;;;;;;6248318;22;20043;-86
2021/01/21 04:42:15;;;;;;;2.10;0.70;;;11.10;71.40;;;;;;6275307;22;20083;-86
2021/01/21 04:44:41;;;;;;;1.87;0.60;;;11.10;71.50;;;;;;6248540;22;20000;-86
2021/01/21 04:47:08;;;;;;;2.20;0.60;;;11.10;71.80;;;;;;6248331;22;20052;-87
2021/01/21 04:49:39;;;;;;;2.80;0.63;;;11.10;71.90;;;;;;6247806;22;19999;-86
2021/01/21 04:52:07;;;;;;;1.00;0.60;;;11.00;72.20;;;;;;6248954;22;20007;-86
2021/01/21 04:54:39;;;;;;;4.63;0.80;;;11.00;72.50;;;;;;6248333;22;20000;-86
2021/01/21 04:57:09;;;;;;;2.63;0.80;;;11.00;73.00;;;;;;6248584;22;19999;-86
2021/01/21 04:59:36;;;;;;;2.50;0.60;;;10.90;73.50;;;;;;6247754;22;20082;-86
2021/01/21 05:02:04;;;;;;;3.30;0.73;;;10.90;73.80;;;;;;6248313;22;20091;-86
2021/01/21 05:04:30;;;;;;;3.30;1.17;;;10.90;74.80;;;;;;6248287;22;20079;-86
2021/01/21 05:06:56;;;;;;;1.43;0.70;;;10.90;77.50;;;;;;6248120;22;20096;-87
2021/01/21 05:09:23;;;;;;;2.77;0.87;;;10.70;78.30;;;;;;6247769;22;20006;-86
2021/01/21 05:11:48;;;;;;;2.73;0.80;;;10.80;78.60;;;;;;6275290;22;19999;-86
2021/01/21 05:14:15;;;;;;;2.67;0.90;;;10.70;79.00;;;;;;6248433;22;20087;-86
2021/01/21 05:16:43;;;;;;;2.23;0.90;;;10.70;79.80;;;;;;6248261;22;20008;-86
2021/01/21 05:19:14;;;;;;;4.13;0.80;;;10.70;79.70;;;;;;6247469;22;20380;-88
2021/01/21 05:21:41;;;;;;;4.13;0.90;;;10.60;81.30;;;;;;6248230;22;20056;-87
2021/01/21 05:24:10;;;;;;;6.03;1.30;;;10.50;84.80;;;;;;6248261;22;20007;-86
2021/01/21 05:26:36;;;;;;;6.10;1.08;;;10.10;89.10;;;;;;6249697;22;20000;-86
2021/01/21 05:29:16;;;;;;;2.00;0.50;;;9.60;90.40;;;;;;6249534;22;20002;-86
2021/01/21 05:32:08;;;;;;;3.33;0.80;;;9.20;90.30;;;;;;6250336;22;20004;-86
2021/01/21 05:34:38;;;;;;;4.20;0.80;;;8.90;91.30;;;;;;6226015;22;20012;-86
2021/01/21 05:37:22;;;;;;;2.83;0.50;;;8.70;91.50;;;;;;6247752;22;20018;-85
2021/01/21 05:39:53;;;;;;;2.70;0.70;;;8.40;90.70;;;;;;6249489;22;20497;-86
2021/01/21 05:42:44;;;;;;;3.03;0.37;;;8.30;91.10;;;;;;6274027;22;20035;-86
2021/01/21 05:45:19;;;;;;;2.33;0.40;;;8.10;90.80;;;;;;6225272;22;20008;-85
2021/01/21 05:48:02;;;;;;;2.27;0.80;;;7.90;89.80;;;;;;6275488;22;20014;-86
2021/01/21 05:50:38;;;;;;;3.20;0.37;;;7.70;90.40;;;;;;6276512;22;20140;-86
2021/01/21 05:53:12;;;;;;;2.37;0.30;;;7.50;90.50;;;;;;6250605;22;20488;-86
2021/01/21 05:55:38;;;;;;;2.30;0.47;;;7.50;89.80;;;;;;6250061;22;20500;-86
2021/01/21 05:58:05;;;;;;;2.13;0.40;;;7.50;90.20;;;;;;6277263;22;19996;-86
2021/01/21 06:00:32;;;;;;;2.47;0.67;;;7.50;90.90;;;;;;6276729;22;20007;-87
2021/01/21 06:02:59;;;;;;;2.27;0.30;;;7.50;89.20;;;;;;6250455;22;20008;-87
2021/01/21 06:05:25;;;;;;;7.87;0.90;;;7.50;87.30;;;;;;6250652;22;20083;-87
2021/01/21 06:07:52;;;;;;;1.57;0.43;;;7.40;87.80;;;;;;6250974;22;20529;-86
2021/01/21 06:10:19;;;;;;;2.13;0.40;;;7.40;87.60;;;;;;6250094;22;20087;-86
2021/01/21 06:12:46;;;;;;;1.33;0.40;;;7.40;88.00;;;;;;6277912;22;20000;-87
2021/01/21 06:18:14;;;;;;;4.30;0.90;;;7.40;88.50;;;;;;6253852;22;20061;-86
2021/01/21 06:20:39;;;;;;;7.33;1.80;;;7.40;88.30;;;;;;6249205;22;20000;-86
2021/01/21 06:23:10;;;;;;;3.40;1.00;;;7.40;88.30;;;;;;6249663;22;20007;-86
2021/01/21 06:25:37;;;;;;;4.00;0.70;;;7.30;87.70;;;;;;6277044;22;20003;-86
2021/01/21 06:28:04;;;;;;;3.87;1.10;;;7.30;87.10;;;;;;6249731;22;20091;-86
2021/01/21 06:30:32;;;;;;;9.47;2.37;;;7.30;86.70;;;;;;6249287;22;20000;-86
2021/01/21 06:33:06;;;;;;;5.80;2.10;;;7.40;86.30;;;;;;6249420;22;20091;-86
2021/01/21 06:35:33;;;;;;;4.77;1.30;;;7.50;87.90;;;;;;6276667;22;20445;-86
2021/01/21 06:38:05;;;;;;;5.73;1.10;;;7.40;87.30;;;;;;6276637;22;20023;-86
2021/01/21 06:40:33;;;;;;;4.97;0.90;;;7.40;87.70;;;;;;6248881;22;20077;-86
2021/01/21 06:43:14;;;;;;;3.63;0.73;;;7.40;87.80;;;;;;6249337;22;20004;-86
2021/01/21 06:45:40;;;;;;;5.70;1.10;;;7.40;86.80;;;;;;6249437;22;20449;-86
2021/01/21 06:48:09;;;;;;;5.37;0.77;;;7.40;87.50;;;;;;6249758;22;20003;-86
2021/01/21 06:50:37;;;;;;;3.97;0.70;;;7.40;87.20;;;;;;6275783;22;19996;-86
2021/01/21 06:53:05;;;;;;;5.13;0.60;;;7.40;87.40;;;;;;6249425;22;19996;-85
2021/01/21 06:55:35;;;;;;;3.13;0.60;;;7.30;87.10;;;;;;6249437;22;20432;-87
2021/01/21 06:58:01;;;;;;;2.53;0.70;;;7.40;87.20;;;;;;6249392;22;20034;-86
2021/01/21 07:00:44;;;;;;;6.00;1.00;;;7.40;86.60;;;;;;6248786;22;20457;-86
2021/01/21 07:03:32;;;;;;;5.43;0.80;;;7.40;87.30;;;;;;6249601;22;19996;-86
2021/01/21 07:06:02;;;;;;;8.07;1.90;;;7.40;87.10;;;;;;6255963;22;20102;-81
2021/01/21 07:08:28;;;;;;;3.37;1.00;;;7.40;87.10;;;;;;6281642;22;20446;-80
2021/01/21 07:10:58;;;;;;;3.80;0.97;;;7.40;86.60;;;;;;6308622;22;20000;-81
2021/01/21 07:13:25;;;;;;;3.70;1.03;;;7.30;86.60;;;;;;6308876;22;20306;-80
2021/01/21 07:15:57;;;;;;;4.97;0.90;;;7.30;86.80;;;;;;6273671;22;20004;-80
2021/01/21 07:18:30;;;;;;;8.30;2.47;;;7.30;86.70;;;;;;6278063;22;20075;-81
2021/01/21 07:20:59;;;;;;;7.90;1.80;;;7.30;86.60;;;;;;6276976;22;20004;-81
2021/01/21 07:23:35;;;;;;;6.55;1.70;;;7.30;86.30;;;;;;6277697;22;20007;-81
2021/01/21 07:26:38;;;;;;;7.17;1.30;;;7.30;86.20;;;;;;6278896;22;20000;-81
2021/01/21 07:29:22;;;;;;;6.83;1.70;;;7.30;86.20;;;;;;6277125;22;20077;-80
2021/01/21 07:31:53;;;;;;;8.00;1.50;;;7.30;86.60;;;;;;6250618;22;20436;-81
2021/01/21 07:34:37;;;;;;;9.53;1.60;;;7.30;86.40;;;;;;6278913;22;20000;-82
2021/01/21 07:37:16;;;;;;;5.67;1.40;;;7.30;86.70;;;;;;6277596;22;20003;-80
2021/01/21 07:39:51;;;;;;;6.38;1.40;;;7.30;86.60;;;;;;6277090;22;19999;-81
2021/01/21 07:42:17;;;;;;;6.97;1.80;;;7.30;86.20;;;;;;6276926;22;20000;-81
2021/01/21 07:44:54;;;;;;;9.13;2.00;;;7.30;86.40;;;;;;6250222;22;20010;-81
2021/01/21 07:47:37;;;;;;;6.13;1.33;;;7.30;86.40;;;;;;6277022;22;20087;-80
2021/01/21 07:50:26;;;;;;;5.67;1.50;;;7.30;85.90;;;;;;6248895;22;20003;-80
2021/01/21 07:52:55;;;;;;;6.32;1.38;;;7.30;85.90;;;;;;6257728;22;20342;-81
2021/01/21 07:55:24;;;;;;;;;;;7.30;86.70;;;;;;6250190;22;20010;-81
2021/01/21 07:57:50;;;;;;;7.90;1.67;;;7.30;85.60;;;;;;6277083;22;19909;-81
2021/01/21 08:00:16;;;;;;;11.93;2.30;;;7.30;85.50;;;;;;6249617;22;20032;-79
2021/01/21 08:02:48;;;;;;;7.93;1.60;;;7.30;85.70;;;;;;6249125;22;20090;-79
2021/01/21 08:05:16;;;;;;;9.60;1.30;;;7.30;85.10;;;;;;6276435;22;20023;-79
2021/01/21 08:07:51;;;;;;;4.93;1.10;;;7.20;85.20;;;;;;6248793;22;20065;-79
2021/01/21 08:10:21;;;;;;;6.93;1.10;;;7.20;84.70;;;;;;6275267;22;20002;-79
2021/01/21 08:13:01;;;;;;;8.80;1.00;;;7.20;85.00;;;;;;6276291;22;20323;-79
2021/01/21 08:15:29;;;;;;;8.97;1.17;;;7.20;85.30;;;;;;6276450;22;20000;-79
2021/01/21 08:17:56;;;;;;;6.43;1.20;;;7.10;85.20;;;;;;6249027;22;20027;-80
2021/01/21 08:20:24;;;;;;;6.70;1.40;;;7.20;84.90;;;;;;6275158;22;19995;-79
2021/01/21 08:22:53;;;;;;;10.20;1.10;;;7.20;85.00;;;;;;6275739;22;20026;-79
2021/01/21 08:25:19;;;;;;;5.97;0.90;;;7.20;84.80;;;;;;6276231;22;19995;-80
2021/01/21 08:27:47;;;;;;;6.50;1.57;;;7.10;84.60;;;;;;6276213;22;20000;-80
2021/01/21 08:30:17;;;;;;;6.50;1.10;;;7.20;85.00;;;;;;6275722;22;20367;-80
2021/01/21 08:32:44;;;;;;;5.03;1.07;;;7.20;84.70;;;;;;6276272;22;20054;-80
2021/01/21 08:35:19;;;;;;;3.80;0.97;;;7.20;84.90;;;;;;6276557;22;20008;-79
2021/01/21 08:37:44;;;;;;;4.20;1.00;;;7.30;85.00;;;;;;6276436;22;20042;-80
2021/01/21 08:40:11;;;;;;;7.40;1.00;;;7.30;85.00;;;;;;6275956;22;20000;-80
2021/01/21 08:42:37;;;;;;;7.00;1.10;;;7.30;84.80;;;;;;6276304;22;20074;-80
2021/01/21 08:45:03;;;;;;;6.30;1.13;;;7.30;85.60;;;;;;6276555;22;20102;-79
2021/01/21 08:47:50;;;;;;;4.77;0.83;;;7.30;84.60;;;;;;6276979;22;19996;-79
2021/01/21 08:50:18;;;;;;;5.77;1.03;;;7.30;85.10;;;;;;6275526;22;20004;-80
2021/01/21 08:53:04;;;;;;;6.73;1.27;;;7.30;83.90;;;;;;6248441;22;20499;-79
2021/01/21 08:55:38;;;;;;;8.53;1.10;;;7.30;83.90;;;;;;6276329;22;20004;-79
2021/01/21 08:58:04;;;;;;;8.20;1.40;;;7.30;83.70;;;;;;6275744;22;19999;-80
2021/01/21 09:00:31;;;;;;;5.67;0.97;;;7.30;83.90;;;;;;6275464;22;20003;-80
2021/01/21 09:02:58;;;;;;;9.47;1.73;;;7.30;83.80;;;;;;6278223;22;20008;-81
2021/01/21 09:05:23;;;;;;;5.07;0.83;;;7.30;83.90;;;;;;6277928;22;20000;-80
2021/01/21 09:07:50;;;;;;;5.03;1.00;;;7.30;83.70;;;;;;6277832;22;20172;-79
2021/01/21 09:10:16;;;;;;;5.83;0.90;;;7.30;82.80;;;;;;6278137;22;20000;-79
2021/01/21 09:12:42;;;;;;;4.60;1.00;;;7.30;83.30;;;;;;6278455;22;20008;-80
2021/01/21 09:15:10;;;;;;;4.70;0.80;;;7.30;82.90;;;;;;6278093;22;19996;-80
2021/01/21 09:17:40;;;;;;;6.40;1.00;;;7.30;83.00;;;;;;6278232;22;20000;-80
2021/01/21 09:20:27;;;;;;;8.60;1.67;;;7.40;82.30;;;;;;6249727;22;20014;-79
2021/01/21 09:22:52;;;;;;;3.43;0.93;;;7.40;82.50;;;;;;6278123;22;20053;-79
2021/01/21 09:25:27;;;;;;;6.93;0.90;;;7.40;82.20;;;;;;6278188;22;20004;-80
2021/01/21 09:27:54;;;;;;;8.37;1.00;;;7.40;81.90;;;;;;6277564;22;20000;-80
2021/01/21 09:30:21;;;;;;;5.93;1.20;;;7.40;82.10;;;;;;6277083;22;20008;-80
2021/01/21 09:32:46;;;;;;;5.30;1.23;;;7.40;81.70;;;;;;6277887;22;20434;-79
2021/01/21 09:35:15;;;;;;;6.10;1.30;;;7.40;81.50;;;;;;6278412;22;20010;-79
2021/01/21 09:37:55;;;;;;;9.18;0.95;;;7.50;81.50;;;;;;6277326;22;20004;-80
2021/01/21 09:40:26;;;;;;;7.55;1.45;;;7.50;81.10;;;;;;6277191;22;20396;-79
2021/01/21 09:42:57;;;;;;;7.67;1.27;;;7.50;81.40;;;;;;6277739;22;20008;-80
2021/01/21 09:45:23;;;;;;;5.07;0.93;;;7.50;81.90;;;;;;6277839;22;20003;-79
2021/01/21 09:47:50;;;;;;;7.83;1.33;;;7.50;81.30;;;;;;6250800;22;20014;-79
2021/01/21 09:50:17;;;;;;;12.30;1.10;;;7.50;80.60;;;;;;6249859;22;20003;-79
2021/01/21 09:52:43;;;;;;;7.77;0.93;;;7.60;80.80;;;;;;6250360;22;20008;-80
2021/01/21 09:55:09;;;;;;;15.93;1.40;;;7.60;80.90;;;;;;6278000;22;19996;-80
2021/01/21 09:57:35;;;;;;;6.93;0.90;;;7.60;80.70;;;;;;6277660;22;20000;-80
2021/01/21 10:00:01;;;;;;;9.00;1.30;;;7.60;80.50;;;;;;6276866;22;20497;-79
2021/01/21 10:02:26;;;;;;;4.53;1.10;;;7.70;81.20;;;;;;6277068;22;20007;-80
2021/01/21 10:04:52;;;;;;;8.60;1.30;;;7.70;79.60;;;;;;6277526;22;20022;-79
2021/01/21 10:07:18;;;;;;;6.17;1.43;;;7.70;79.70;;;;;;6250675;22;20452;-80
2021/01/21 10:09:43;;;;;;;4.17;0.90;;;7.70;79.80;;;;;;6278026;22;20004;-80
2021/01/21 10:12:09;;;;;;;7.50;1.10;;;7.80;79.70;;;;;;6277187;22;20004;-80
2021/01/21 10:14:36;;;;;;;10.33;2.10;;;7.80;79.40;;;;;;6277365;22;20003;-79
2021/01/21 10:17:02;;;;;;;7.37;1.00;;;7.80;79.50;;;;;;6276947;22;20004;-80
2021/01/21 10:19:28;;;;;;;6.57;1.23;;;7.80;79.20;;;;;;6249205;22;20000;-79
2021/01/21 10:21:54;;;;;;;11.30;1.30;;;7.80;78.80;;;;;;6277776;22;20069;-80
2021/01/21 10:24:21;;;;;;;9.00;1.10;;;7.80;78.20;;;;;;6278098;22;20430;-80
2021/01/21 10:26:47;;;;;;;6.70;1.03;;;7.90;78.60;;;;;;6277346;22;19999;-80
2021/01/21 10:29:12;;;;;;;5.20;0.83;;;7.90;78.30;;;;;;6276332;22;20057;-79
2021/01/21 10:31:40;;;;;;;8.77;1.60;;;7.90;78.10;;;;;;6276788;22;20415;-79
2021/01/21 10:34:06;;;;;;;6.30;1.50;;;8.00;77.30;;;;;;6277538;22;20312;-79
2021/01/21 10:36:32;;;;;;;13.57;1.60;;;7.90;76.60;;;;;;6249481;22;20446;-79
2021/01/21 10:38:58;;;;;;;8.33;1.80;;;7.90;76.50;;;;;;6276577;22;20007;-79
2021/01/21 10:41:24;;;;;;;9.47;1.83;;;7.90;77.10;;;;;;6277268;22;20004;-80
2021/01/21 10:43:49;;;;;;;9.47;1.90;;;7.90;77.80;;;;;;6250117;22;20027;-79
2021/01/21 10:46:15;;;;;;;13.23;1.53;;;7.90;77.10;;;;;;6249673;22;20339;-81
2021/01/21 10:48:41;;;;;;;5.57;1.67;;;7.90;77.20;;;;;;6279021;22;20346;-80
2021/01/21 10:51:06;;;;;;;9.20;1.40;;;7.90;77.40;;;;;;6277742;22;20003;-80
2021/01/21 10:53:32;;;;;;;5.37;1.10;;;7.90;77.00;;;;;;6278804;22;20003;-80
2021/01/21 10:55:58;;;;;;;8.47;1.27;;;7.90;77.00;;;;;;6277431;22;19999;-79
2021/01/21 10:58:23;;;;;;;10.93;1.60;;;7.90;77.50;;;;;;6277351;22;19999;-80
2021/01/21 11:00:49;;;;;;;5.43;1.30;;;7.90;77.90;;;;;;6249189;22;20004;-80
2021/01/21 11:03:15;;;;;;;4.90;0.80;;;8.00;78.00;;;;;;6277474;22;20057;-80
2021/01/21 11:05:44;;;;;;;8.83;1.40;;;8.00;78.00;;;;;;6249608;22;20004;-80
2021/01/21 11:08:11;;;;;;;6.88;1.25;;;8.00;78.30;;;;;;6277329;22;20007;-80
2021/01/21 11:10:38;;;;;;;5.80;1.20;;;8.00;78.40;;;;;;6275983;22;20023;-79
2021/01/21 11:13:04;;;;;;;9.57;1.07;;;8.00;78.20;;;;;;6249324;22;20438;-80
2021/01/21 11:15:30;;;;;;;6.53;1.10;;;8.00;77.80;;;;;;6249979;22;20027;-79
2021/01/21 11:17:56;;;;;;;4.23;0.90;;;8.00;77.40;;;;;;6277006;22;20007;-80
2021/01/21 11:20:22;;;;;;;5.63;0.87;;;8.00;77.50;;;;;;6248854;22;20327;-79
2021/01/21 11:22:48;;;;;;;4.93;0.90;;;8.00;77.30;;;;;;6276257;22;20000;-79
2021/01/21 11:25:14;;;;;;;6.50;1.00;;;8.00;77.10;;;;;;6276580;22;20007;-80
2021/01/21 11:27:40;;;;;;;3.40;0.77;;;8.00;78.00;;;;;;6277124;22;20000;-80
2021/01/21 11:30:08;;;;;;;5.03;1.10;;;8.00;77.00;;;;;;6277129;22;20000;-80
2021/01/21 11:32:34;;;;;;;5.50;0.90;;;8.10;76.70;;;;;;6250579;22;20004;-81
2021/01/21 11:35:00;;;;;;;5.77;0.80;;;8.00;76.20;;;;;;6278486;22;20007;-81
2021/01/21 11:37:26;;;;;;;8.27;1.03;;;8.10;76.60;;;;;;6250231;22;20004;-81
2021/01/21 11:39:53;;;;;;;8.90;1.10;;;8.10;76.90;;;;;;6277995;22;20012;-81
2021/01/21 11:42:19;;;;;;;6.37;1.23;;;8.10;76.20;;;;;;6278828;22;19999;-81
2021/01/21 11:44:44;;;;;;;6.27;0.90;;;8.10;76.40;;;;;;6278075;22;20045;-80
2021/01/21 11:47:10;;;;;;;6.53;1.20;;;8.20;76.60;;;;;;6278843;22;20007;-80
2021/01/21 11:49:36;;;;;;;7.57;1.67;;;8.20;76.50;;;;;;6278164;22;20007;-81
2021/01/21 11:52:01;;;;;;;4.53;0.87;;;8.20;76.60;;;;;;6279016;22;20004;-81
2021/01/21 11:54:27;;;;;;;5.43;1.00;;;8.20;76.70;;;;;;6278284;22;20010;-81
2021/01/21 11:56:52;;;;;;;8.00;1.43;;;8.20;76.20;;;;;;6279518;22;20099;-80
2021/01/21 11:59:18;;;;;;;5.67;1.00;;;8.20;76.00;;;;;;6278874;22;20000;-81
2021/01/21 12:01:44;;;;;;;5.57;1.03;;;8.20;76.00;;;;;;6279145;22;20032;-81
2021/01/21 12:04:10;;;;;;;3.50;1.00;;;8.20;75.90;;;;;;6278638;22;20379;-80
2021/01/21 12:06:36;;;;;;;7.40;1.00;;;8.10;75.80;;;;;;6278643;22;20007;-81
2021/01/21 12:09:03;;;;;;;9.50;1.07;;;8.20;76.20;;;;;;6278860;22;20342;-81
2021/01/21 12:11:29;;;;;;;3.97;0.90;;;8.20;75.30;;;;;;6251024;22;20011;-81
2021/01/21 12:13:55;;;;;;;7.00;1.50;;;8.20;74.60;;;;;;6280901;22;20033;-81
2021/01/21 12:16:21;;;;;;;6.70;1.13;;;8.20;74.40;;;;;;6251937;22;20090;-81
2021/01/21 12:18:47;;;;;;;3.60;0.97;;;8.20;74.60;;;;;;6280460;22;20010;-80
2021/01/21 12:21:13;;;;;;;12.20;2.77;;;8.30;75.30;;;;;;6251701;22;19999;-80
2021/01/21 12:23:38;;;;;;;6.53;1.10;;;8.20;74.20;;;;;;6252868;22;20039;-81
2021/01/21 12:26:06;;;;;;;5.60;1.10;;;8.20;74.30;;;;;;6250454;22;20000;-80
2021/01/21 12:28:35;;;;;;;5.50;1.10;;;8.30;75.10;;;;;;6277944;22;20127;-80
2021/01/21 12:31:02;;;;;;;6.90;1.00;;;8.20;74.50;;;;;;6278043;22;20007;-80
2021/01/21 12:33:28;;;;;;;4.53;0.80;;;8.20;74.30;;;;;;6277943;22;20007;-81
2021/01/21 12:35:55;;;;;;;4.03;0.80;;;8.20;74.60;;;;;;6277389;22;20023;-81
2021/01/21 12:38:20;;;;;;;6.80;1.00;;;8.20;74.60;;;;;;6279003;22;20004;-80
2021/01/21 12:40:46;;;;;;;7.10;0.90;;;8.20;74.90;;;;;;6277268;22;20087;-81
2021/01/21 12:43:12;;;;;;;8.20;1.20;;;8.10;75.40;;;;;;6277206;22;20401;-81
2021/01/21 12:45:37;;;;;;;5.20;0.90;;;8.20;75.20;;;;;;6278416;22;20042;-81
2021/01/21 12:48:04;;;;;;;6.03;0.90;;;8.20;75.30;;;;;;6249844;22;20337;-81
2021/01/21 12:50:29;;;;;;;4.40;0.90;;;8.20;74.80;;;;;;6277534;22;20000;-81
2021/01/21 12:52:55;;;;;;;6.57;0.90;;;8.20;74.40;;;;;;6249822;22;20068;-81
2021/01/21 12:55:20;;;;;;;6.60;0.83;;;8.20;74.20;;;;;;6277598;22;20026;-81
2021/01/21 12:57:49;;;;;;;5.77;1.00;;;8.20;74.50;;;;;;6278013;22;20000;-81
2021/01/21 13:00:15;;;;;;;7.90;0.90;;;8.30;74.80;;;;;;6277118;22;19995;-81
2021/01/21 13:02:41;;;;;;;5.73;0.90;;;8.30;73.90;;;;;;6277878;22;20003;-81